createdAt,value
2023-03-25T00:01:21.291Z,18.15
2023-03-25T00:03:54.244Z,17.99
2023-03-25T00:06:23.205Z,17.99
2023-03-25T00:08:52.003Z,17.98
2023-03-25T00:11:21.260Z,17.96
2023-03-25T00:13:50.671Z,18.07
2023-03-25T00:16:20.049Z,18.07
2023-03-25T00:18:52.275Z,18.06
2023-03-25T00:21:21.845Z,18.04
2023-03-25T00:23:50.689Z,18.02
2023-03-25T00:26:19.871Z,18.00
2023-03-25T00:28:48.656Z,18.05
2023-03-25T00:31:17.759Z,18.02
2023-03-25T00:33:46.652Z,18.03
2023-03-25T00:36:15.693Z,18.04
2023-03-25T00:38:46.560Z,18.01
2023-03-25T00:41:26.414Z,18.04
2023-03-25T00:43:59.945Z,18.03
2023-03-25T00:46:33.620Z,17.93
2023-03-25T00:49:03.080Z,17.84
2023-03-25T00:51:34.816Z,17.89
2023-03-25T00:54:23.146Z,17.88
2023-03-25T00:56:54.276Z,17.89
2023-03-25T00:59:23.575Z,17.86
2023-03-25T01:01:57.880Z,17.88
2023-03-25T01:04:31.324Z,17.85
2023-03-25T01:07:04.054Z,17.77
2023-03-25T01:09:37.755Z,17.83
2023-03-25T01:12:11.214Z,17.78
2023-03-25T01:14:47.076Z,17.77
2023-03-25T01:17:18.637Z,17.78
2023-03-25T01:19:55.451Z,17.83
2023-03-25T01:22:29.406Z,17.70
2023-03-25T01:25:02.804Z,17.72
2023-03-25T01:27:35.386Z,17.68
2023-03-25T01:30:10.058Z,17.64
2023-03-25T01:32:43.490Z,17.65
2023-03-25T01:35:17.642Z,17.69
2023-03-25T01:37:57.535Z,17.65
2023-03-25T01:40:32.468Z,17.72
2023-03-25T01:43:06.524Z,17.76
2023-03-25T01:45:40.835Z,17.81
2023-03-25T01:48:19.016Z,17.78
2023-03-25T01:51:02.970Z,17.86
2023-03-25T01:53:37.438Z,17.83
2023-03-25T01:56:12.126Z,17.82
2023-03-25T01:58:47.771Z,17.81
2023-03-25T02:01:25.730Z,17.92
2023-03-25T02:04:05.968Z,17.99
2023-03-25T02:06:59.819Z,18.09
2023-03-25T02:09:35.104Z,18.04
2023-03-25T02:12:12.303Z,17.99
2023-03-25T02:14:45.265Z,18.14
2023-03-25T02:17:27.731Z,18.17
2023-03-25T02:20:36.305Z,18.35
2023-03-25T02:23:30.940Z,18.39
2023-03-25T02:26:18.674Z,18.36
2023-03-25T02:28:55.257Z,18.27
2023-03-25T02:32:14.404Z,18.27
2023-03-25T02:35:04.683Z,18.29
2023-03-25T02:38:01.103Z,18.40
2023-03-25T02:40:50.422Z,18.57
2023-03-25T02:43:42.495Z,18.58
2023-03-25T02:46:16.876Z,18.54
2023-03-25T02:49:09.628Z,18.58
2023-03-25T02:52:04.532Z,18.88
2023-03-25T02:54:37.947Z,18.71
2023-03-25T02:57:09.311Z,18.90
2023-03-25T02:59:41.509Z,18.91
2023-03-25T03:02:12.450Z,18.99
2023-03-25T03:04:53.624Z,19.28
2023-03-25T03:07:33.255Z,19.08
2023-03-25T03:10:24.441Z,19.31
2023-03-25T03:12:58.830Z,19.38
2023-03-25T03:15:42.546Z,19.50
2023-03-25T03:18:43.174Z,19.54
2023-03-25T03:21:24.197Z,19.57
2023-03-25T03:24:09.013Z,19.69
2023-03-25T03:26:59.970Z,19.71
2023-03-25T03:29:47.657Z,19.61
2023-03-25T03:32:44.409Z,19.87
2023-03-25T03:35:20.214Z,19.93
2023-03-25T03:37:59.256Z,20.20
2023-03-25T03:40:31.549Z,20.13
2023-03-25T03:43:13.445Z,20.05
2023-03-25T03:45:47.518Z,20.32
2023-03-25T03:49:27.494Z,20.53
2023-03-25T03:52:08.115Z,20.62
2023-03-25T03:54:54.601Z,20.59
2023-03-25T03:57:33.631Z,20.73
2023-03-25T04:00:19.280Z,20.98
2023-03-25T04:03:10.090Z,20.87
2023-03-25T04:05:40.729Z,20.84
2023-03-25T04:08:22.294Z,20.98
2023-03-25T04:11:00.112Z,21.06
2023-03-25T04:13:37.611Z,21.28
2023-03-25T04:16:08.328Z,21.53
2023-03-25T04:18:37.586Z,21.59
2023-03-25T04:21:06.690Z,21.71
2023-03-25T04:23:35.815Z,22.04
2023-03-25T04:26:04.874Z,22.18
2023-03-25T04:28:33.932Z,22.26
2023-03-25T04:31:06.397Z,22.29
2023-03-25T04:33:36.899Z,22.28
2023-03-25T04:36:07.723Z,22.38
2023-03-25T04:38:38.623Z,22.28
2023-03-25T04:41:09.458Z,22.22
2023-03-25T04:43:40.188Z,22.26
2023-03-25T04:46:15.094Z,21.96
2023-03-25T04:48:46.118Z,21.70
2023-03-25T04:51:17.010Z,21.54
2023-03-25T04:53:45.943Z,21.67
2023-03-25T04:56:17.845Z,21.79
2023-03-25T04:58:47.675Z,21.66
2023-03-25T05:01:31.514Z,21.79
2023-03-25T05:04:06.513Z,21.74
2023-03-25T05:06:39.406Z,21.68
2023-03-25T05:09:12.434Z,21.69
2023-03-25T05:11:42.818Z,22.13
2023-03-25T05:14:13.003Z,22.16
2023-03-25T05:16:42.508Z,22.29
2023-03-25T05:19:11.533Z,22.42
2023-03-25T05:21:42.143Z,22.61
2023-03-25T05:24:13.033Z,22.57
2023-03-25T05:26:43.561Z,22.69
2023-03-25T05:29:15.924Z,22.84
2023-03-25T05:31:47.027Z,22.75
2023-03-25T05:34:17.967Z,23.01
2023-03-25T05:36:47.234Z,23.13
2023-03-25T05:39:16.210Z,23.24
2023-03-25T05:41:46.723Z,23.17
2023-03-25T05:44:15.812Z,23.11
2023-03-25T05:46:45.045Z,22.92
2023-03-25T05:49:14.216Z,22.99
2023-03-25T05:51:43.031Z,22.96
2023-03-25T05:54:12.251Z,22.93
2023-03-25T05:56:42.412Z,23.10
2023-03-25T05:59:11.414Z,23.16
2023-03-25T06:01:40.285Z,23.29
2023-03-25T06:04:10.993Z,23.57
2023-03-25T06:06:40.738Z,23.56
2023-03-25T06:09:09.815Z,23.34
2023-03-25T06:11:41.971Z,23.45
2023-03-25T06:14:11.336Z,23.60
2023-03-25T06:16:40.483Z,23.41
2023-03-25T06:19:10.527Z,23.54
2023-03-25T06:21:39.803Z,23.44
2023-03-25T06:24:09.303Z,23.32
2023-03-25T06:26:38.149Z,23.43
2023-03-25T06:29:07.112Z,23.68
2023-03-25T06:31:35.974Z,23.77
2023-03-25T06:34:05.146Z,24.01
2023-03-25T06:36:35.649Z,24.10
2023-03-25T06:39:06.351Z,24.47
2023-03-25T06:41:37.115Z,24.52
2023-03-25T06:44:26.446Z,24.43
2023-03-25T06:47:13.653Z,24.59
2023-03-25T06:49:47.694Z,24.78
2023-03-25T06:52:28.843Z,25.00
2023-03-25T06:54:58.059Z,24.98
2023-03-25T06:57:26.939Z,25.00
2023-03-25T06:59:55.893Z,25.02
2023-03-25T07:02:24.717Z,24.98
2023-03-25T07:04:53.734Z,25.03
2023-03-25T07:07:22.505Z,25.08
2023-03-25T07:09:56.991Z,25.25
2023-03-25T07:12:26.001Z,25.15
2023-03-25T07:14:59.404Z,25.30
2023-03-25T07:17:30.089Z,25.21
2023-03-25T07:20:00.009Z,25.13
2023-03-25T07:22:28.960Z,25.21
2023-03-25T07:24:59.413Z,25.45
2023-03-25T07:27:29.190Z,25.53
2023-03-25T07:30:07.972Z,25.76
2023-03-25T07:32:38.157Z,25.80
2023-03-25T07:35:10.261Z,25.65
2023-03-25T07:37:39.381Z,25.52
2023-03-25T07:40:08.850Z,25.39
2023-03-25T07:42:39.487Z,25.27
2023-03-25T07:45:18.503Z,25.35
2023-03-25T07:47:51.213Z,25.64
2023-03-25T07:50:24.425Z,25.80
2023-03-25T07:52:54.710Z,25.92
2023-03-25T07:55:23.552Z,25.74
2023-03-25T07:57:52.953Z,25.62
2023-03-25T08:00:22.179Z,25.54
2023-03-25T08:02:51.582Z,25.72
2023-03-25T08:05:30.012Z,26.10
2023-03-25T08:08:02.099Z,26.12
2023-03-25T08:10:31.407Z,26.20
2023-03-25T08:13:00.581Z,26.45
2023-03-25T08:16:07.857Z,26.44
2023-03-25T08:18:37.059Z,26.23
2023-03-25T08:21:09.694Z,26.56
2023-03-25T08:23:39.113Z,26.45
2023-03-25T08:26:08.060Z,26.51
2023-03-25T08:28:37.052Z,26.16
2023-03-25T08:31:09.870Z,26.04
2023-03-25T08:33:41.849Z,26.15
2023-03-25T08:36:15.026Z,26.18
2023-03-25T08:38:44.020Z,26.02
2023-03-25T08:41:12.796Z,25.90
2023-03-25T08:43:43.545Z,25.70
2023-03-25T08:46:14.345Z,26.00
2023-03-25T08:48:45.060Z,25.90
2023-03-25T08:51:13.995Z,25.86
2023-03-25T08:53:42.759Z,25.99
2023-03-25T08:56:12.400Z,26.16
2023-03-25T08:58:41.696Z,26.07
2023-03-25T09:01:10.698Z,25.71
2023-03-25T09:03:39.644Z,25.78
2023-03-25T09:06:10.071Z,25.69
2023-03-25T09:08:39.122Z,25.26
2023-03-25T09:11:08.259Z,25.50
2023-03-25T09:13:37.307Z,25.89
2023-03-25T09:16:06.736Z,26.14
2023-03-25T09:18:37.725Z,25.98
2023-03-25T09:21:07.155Z,26.11
2023-03-25T09:23:36.225Z,26.06
2023-03-25T09:26:06.214Z,26.12
2023-03-25T09:28:35.274Z,26.12
2023-03-25T09:31:04.004Z,26.17
2023-03-25T09:33:33.328Z,26.14
2023-03-25T09:36:03.144Z,26.11
2023-03-25T09:38:32.070Z,25.94
2023-03-25T09:41:06.560Z,25.87
2023-03-25T09:44:04.140Z,25.61
2023-03-25T09:46:34.048Z,25.67
2023-03-25T09:49:03.161Z,25.70
2023-03-25T09:51:37.624Z,25.70
2023-03-25T09:54:28.747Z,25.63
2023-03-25T09:57:03.664Z,25.80
2023-03-25T09:59:50.064Z,25.87
2023-03-25T10:02:49.689Z,25.68
2023-03-25T10:05:19.840Z,25.50
2023-03-25T10:08:14.454Z,25.78
2023-03-25T10:11:09.135Z,25.69
2023-03-25T10:13:38.111Z,25.65
2023-03-25T10:16:27.174Z,25.46
2023-03-25T10:19:52.127Z,25.61
2023-03-25T10:22:33.731Z,25.55
2023-03-25T10:25:06.567Z,25.48
2023-03-25T10:27:45.726Z,25.38
2023-03-25T10:30:16.789Z,25.49
2023-03-25T10:32:50.760Z,25.25
2023-03-25T10:35:44.335Z,25.30
2023-03-25T10:38:21.647Z,25.32
2023-03-25T10:40:54.223Z,25.34
2023-03-25T10:43:31.230Z,25.35
2023-03-25T10:46:28.766Z,25.25
2023-03-25T10:48:57.867Z,25.18
2023-03-25T10:51:37.195Z,25.16
2023-03-25T10:54:06.493Z,25.14
2023-03-25T10:56:39.483Z,25.05
2023-03-25T10:59:26.815Z,24.91
2023-03-25T11:01:57.182Z,24.97
2023-03-25T11:04:37.929Z,24.97
2023-03-25T11:07:19.092Z,24.97
2023-03-25T11:09:48.361Z,24.95
2023-03-25T11:12:30.160Z,24.85
2023-03-25T11:15:07.554Z,24.92
2023-03-25T11:17:36.842Z,24.96
2023-03-25T11:20:18.571Z,25.03
2023-03-25T11:22:52.330Z,25.05
2023-03-25T11:25:32.513Z,24.97
2023-03-25T11:28:06.445Z,24.97
2023-03-25T11:30:35.398Z,24.98
2023-03-25T11:33:15.603Z,24.89
2023-03-25T11:35:47.618Z,25.01
2023-03-25T11:38:30.193Z,25.20
2023-03-25T11:40:59.792Z,25.40
2023-03-25T11:43:37.724Z,25.09
2023-03-25T11:46:18.309Z,25.21
2023-03-25T11:48:48.238Z,25.14
2023-03-25T11:51:23.634Z,25.19
2023-03-25T11:54:06.608Z,25.28
2023-03-25T11:56:43.936Z,25.17
2023-03-25T11:59:39.053Z,25.24
2023-03-25T12:02:30.850Z,25.31
2023-03-25T12:05:13.368Z,25.17
2023-03-25T12:07:48.312Z,25.04
2023-03-25T12:10:49.301Z,25.13
2023-03-25T12:13:56.778Z,25.15
2023-03-25T12:16:45.292Z,25.16
2023-03-25T12:19:27.229Z,25.05
2023-03-25T12:22:26.971Z,25.03
2023-03-25T12:25:21.987Z,24.91
2023-03-25T12:28:09.757Z,24.83
2023-03-25T12:30:47.665Z,24.88
2023-03-25T12:33:48.988Z,24.81
2023-03-25T12:36:21.113Z,24.73
2023-03-25T12:39:39.441Z,24.72
2023-03-25T12:42:34.490Z,24.56
2023-03-25T12:45:33.522Z,24.58
2023-03-25T12:48:32.363Z,24.51
2023-03-25T12:51:01.628Z,24.32
2023-03-25T12:53:47.751Z,24.47
2023-03-25T12:56:33.656Z,24.42
2023-03-25T12:59:21.141Z,24.22
2023-03-25T13:02:05.175Z,24.18
2023-03-25T13:04:42.858Z,24.09
2023-03-25T13:07:17.722Z,24.01
2023-03-25T13:10:18.055Z,24.03
2023-03-25T13:12:59.709Z,23.80
2023-03-25T13:15:44.185Z,23.66
2023-03-25T13:19:06.545Z,23.60
2023-03-25T13:21:41.532Z,23.39
2023-03-25T13:24:19.481Z,23.47
2023-03-25T13:26:51.129Z,23.35
2023-03-25T13:29:46.883Z,23.33
2023-03-25T13:32:24.564Z,23.32
2023-03-25T13:35:08.207Z,23.28
2023-03-25T13:37:47.792Z,23.24
2023-03-25T13:40:28.776Z,23.23
2023-03-25T13:43:04.682Z,23.11
2023-03-25T13:45:57.798Z,23.20
2023-03-25T13:48:30.510Z,23.13
2023-03-25T13:51:04.303Z,23.02
2023-03-25T13:53:48.910Z,22.95
2023-03-25T13:57:03.331Z,22.90
2023-03-25T13:59:57.594Z,22.87
2023-03-25T14:02:52.548Z,22.73
2023-03-25T14:06:22.986Z,22.73
2023-03-25T14:09:25.483Z,22.69
2023-03-25T14:12:10.354Z,22.58
2023-03-25T14:14:50.249Z,22.46
2023-03-25T14:17:23.719Z,22.52
2023-03-25T14:19:56.485Z,22.39
2023-03-25T14:22:32.854Z,22.51
2023-03-25T14:25:02.148Z,22.41
2023-03-25T14:27:36.546Z,22.47
2023-03-25T14:30:23.076Z,22.32
2023-03-25T14:32:55.346Z,22.26
2023-03-25T14:35:36.766Z,22.12
2023-03-25T14:38:08.828Z,22.14
2023-03-25T14:40:54.774Z,21.95
2023-03-25T14:43:33.996Z,21.78
2023-03-25T14:46:14.050Z,21.60
2023-03-25T14:49:06.771Z,21.58
2023-03-25T14:51:42.482Z,21.34
2023-03-25T14:54:36.874Z,21.17
2023-03-25T14:57:30.874Z,21.11
2023-03-25T15:00:18.294Z,21.14
2023-03-25T15:02:54.131Z,21.01
2023-03-25T15:05:28.596Z,20.93
2023-03-25T15:08:12.691Z,20.82
2023-03-25T15:11:04.273Z,20.76
2023-03-25T15:13:56.229Z,21.05
2023-03-25T15:16:49.196Z,20.93
2023-03-25T15:19:23.817Z,20.95
2023-03-25T15:21:59.288Z,20.89
2023-03-25T15:24:34.355Z,20.71
2023-03-25T15:27:32.362Z,20.91
2023-03-25T15:30:26.036Z,20.82
2023-03-25T15:33:31.890Z,20.76
2023-03-25T15:36:20.905Z,20.93
2023-03-25T15:39:22.103Z,20.82
2023-03-25T15:42:18.970Z,20.78
2023-03-25T15:45:02.855Z,20.57
2023-03-25T15:47:55.524Z,20.40
2023-03-25T15:50:54.221Z,20.38
2023-03-25T15:53:42.802Z,20.56
2023-03-25T15:56:15.673Z,20.43
2023-03-25T15:58:56.567Z,20.23
2023-03-25T16:01:32.223Z,20.19
2023-03-25T16:04:41.676Z,20.19
2023-03-25T16:07:16.290Z,19.93
2023-03-25T16:09:50.063Z,19.82
2023-03-25T16:12:25.083Z,20.01
2023-03-25T16:14:54.528Z,19.91
2023-03-25T16:17:32.115Z,20.11
2023-03-25T16:20:02.666Z,19.96
2023-03-25T16:22:34.400Z,19.53
2023-03-25T16:25:15.210Z,19.71
2023-03-25T16:27:53.148Z,19.89
2023-03-25T16:30:38.804Z,19.93
2023-03-25T16:33:14.658Z,19.83
2023-03-25T16:35:50.753Z,19.85
2023-03-25T16:38:26.300Z,19.60
2023-03-25T16:41:14.816Z,19.74
2023-03-25T16:43:44.379Z,19.59
2023-03-25T16:46:16.822Z,19.58
2023-03-25T16:48:55.203Z,19.54
2023-03-25T16:51:33.090Z,19.52
2023-03-25T16:54:02.327Z,19.10
2023-03-25T16:56:37.624Z,19.43
2023-03-25T16:59:09.657Z,19.40
2023-03-25T17:01:43.369Z,19.60
2023-03-25T17:04:19.572Z,19.28
2023-03-25T17:06:55.656Z,19.28
2023-03-25T17:09:40.902Z,19.32
2023-03-25T17:12:21.502Z,19.51
2023-03-25T17:14:52.692Z,19.53
2023-03-25T17:17:24.453Z,19.50
2023-03-25T17:19:54.036Z,19.63
2023-03-25T17:22:29.820Z,19.56
2023-03-25T17:25:00.612Z,19.53
2023-03-25T17:27:37.072Z,19.25
2023-03-25T17:30:30.726Z,19.37
2023-03-25T17:33:11.592Z,19.42
2023-03-25T17:35:42.802Z,19.47
2023-03-25T17:38:29.969Z,19.52
2023-03-25T17:41:01.249Z,19.45
2023-03-25T17:43:33.534Z,19.53
2023-03-25T17:46:03.970Z,19.32
2023-03-25T17:48:33.016Z,19.34
2023-03-25T17:51:02.305Z,19.20
2023-03-25T17:53:31.845Z,19.08
2023-03-25T17:56:04.239Z,19.27
2023-03-25T17:58:33.265Z,19.37
2023-03-25T18:01:02.377Z,19.18
2023-03-25T18:03:33.681Z,19.21
2023-03-25T18:06:02.599Z,19.18
2023-03-25T18:08:31.851Z,19.10
2023-03-25T18:11:01.020Z,19.11
2023-03-25T18:13:29.910Z,19.11
2023-03-25T18:15:59.243Z,19.08
2023-03-25T18:18:28.319Z,18.99
2023-03-25T18:20:57.326Z,18.98
2023-03-25T18:23:26.131Z,18.94
2023-03-25T18:25:55.241Z,18.86
2023-03-25T18:28:25.815Z,18.87
2023-03-25T18:30:56.348Z,18.84
2023-03-25T18:33:25.541Z,18.86
2023-03-25T18:35:54.512Z,18.89
2023-03-25T18:38:25.805Z,18.87
2023-03-25T18:40:56.873Z,18.89
2023-03-25T18:43:25.914Z,18.81
2023-03-25T18:45:55.078Z,18.79
2023-03-25T18:48:24.420Z,18.82
2023-03-25T18:50:57.714Z,18.90
2023-03-25T18:53:29.270Z,18.82
2023-03-25T18:56:01.755Z,18.79
2023-03-25T18:58:33.828Z,18.76
2023-03-25T19:01:05.025Z,18.78
2023-03-25T19:03:40.432Z,18.72
2023-03-25T19:06:16.075Z,18.74
2023-03-25T19:08:46.455Z,18.54
2023-03-25T19:11:21.614Z,18.44
2023-03-25T19:13:52.394Z,18.56
2023-03-25T19:16:21.978Z,18.64
2023-03-25T19:18:50.776Z,18.65
2023-03-25T19:21:20.740Z,18.73
2023-03-25T19:23:49.598Z,18.44
2023-03-25T19:26:18.587Z,18.53
2023-03-25T19:28:47.269Z,18.40
2023-03-25T19:31:17.387Z,18.35
2023-03-25T19:33:46.561Z,18.44
2023-03-25T19:36:17.634Z,18.43
2023-03-25T19:38:46.961Z,18.62
2023-03-25T19:41:17.276Z,18.57
2023-03-25T19:43:46.803Z,18.57
2023-03-25T19:46:15.824Z,18.67
2023-03-25T19:48:44.730Z,18.62
2023-03-25T19:51:13.653Z,18.61
2023-03-25T19:53:42.646Z,18.63
2023-03-25T19:56:14.792Z,18.55
2023-03-25T19:58:43.763Z,18.40
2023-03-25T20:01:13.095Z,18.51
2023-03-25T20:03:43.025Z,18.47
2023-03-25T20:06:11.983Z,18.47
2023-03-25T20:08:41.183Z,18.52
2023-03-25T20:11:12.827Z,18.43
2023-03-25T20:13:41.864Z,18.50
2023-03-25T20:16:10.899Z,18.48
2023-03-25T20:18:42.188Z,18.51
2023-03-25T20:21:12.694Z,18.47
2023-03-25T20:23:41.616Z,18.43
2023-03-25T20:26:10.443Z,18.41
2023-03-25T20:28:41.671Z,18.43
2023-03-25T20:31:22.655Z,18.54
2023-03-25T20:33:52.306Z,18.48
2023-03-25T20:36:22.497Z,18.44
2023-03-25T20:38:57.722Z,18.47
2023-03-25T20:41:27.747Z,18.49
2023-03-25T20:43:56.657Z,18.52
2023-03-25T20:46:29.173Z,18.47
2023-03-25T20:48:58.834Z,18.58
2023-03-25T20:51:27.573Z,18.41
2023-03-25T20:53:57.868Z,18.45
2023-03-25T20:56:27.109Z,18.45
2023-03-25T20:58:55.932Z,18.40
2023-03-25T21:01:24.996Z,18.43
2023-03-25T21:03:54.326Z,18.47
2023-03-25T21:06:26.671Z,18.50
2023-03-25T21:08:59.558Z,18.53
2023-03-25T21:11:32.392Z,18.42
2023-03-25T21:14:01.364Z,18.44
2023-03-25T21:16:30.248Z,18.47
2023-03-25T21:19:02.702Z,18.48
2023-03-25T21:21:32.166Z,18.61
2023-03-25T21:24:00.960Z,18.43
2023-03-25T21:26:29.840Z,18.47
2023-03-25T21:29:00.707Z,18.44
2023-03-25T21:31:30.303Z,18.45
2023-03-25T21:33:59.375Z,18.42
2023-03-25T21:36:30.717Z,18.48
2023-03-25T21:39:01.687Z,18.46
2023-03-25T21:41:31.507Z,18.43
2023-03-25T21:44:00.238Z,18.46
2023-03-25T21:46:29.409Z,18.41
2023-03-25T21:49:02.086Z,18.42
2023-03-25T21:51:33.226Z,18.40
2023-03-25T21:54:02.372Z,18.37
2023-03-25T21:56:35.595Z,18.32
2023-03-25T21:59:05.519Z,18.31
2023-03-25T22:01:34.483Z,18.34
2023-03-25T22:04:03.893Z,18.34
2023-03-25T22:06:35.981Z,18.41
2023-03-25T22:09:08.948Z,18.24
2023-03-25T22:11:41.491Z,18.23
2023-03-25T22:14:10.599Z,18.36
2023-03-25T22:16:39.513Z,18.32
2023-03-25T22:19:09.553Z,18.34
2023-03-25T22:21:38.425Z,18.25
2023-03-25T22:24:09.257Z,18.25
2023-03-25T22:26:43.285Z,18.23
2023-03-25T22:29:12.411Z,18.17
2023-03-25T22:31:41.928Z,18.19
2023-03-25T22:34:16.133Z,18.23
2023-03-25T22:36:50.998Z,18.19
2023-03-25T22:39:21.938Z,18.13
2023-03-25T22:41:50.907Z,18.07
2023-03-25T22:44:22.255Z,18.09
2023-03-25T22:46:52.356Z,18.17
2023-03-25T22:49:21.547Z,18.10
2023-03-25T22:51:50.485Z,18.06
2023-03-25T22:54:19.296Z,18.08
2023-03-25T22:56:48.399Z,18.04
2023-03-25T22:59:17.249Z,18.05
2023-03-25T23:01:46.297Z,18.02
2023-03-25T23:04:15.264Z,17.96
2023-03-25T23:06:47.048Z,18.03
2023-03-25T23:09:42.223Z,17.99
2023-03-25T23:12:13.526Z,17.94
2023-03-25T23:14:48.583Z,18.03
2023-03-25T23:17:17.555Z,18.02
2023-03-25T23:19:46.998Z,17.82
2023-03-25T23:22:18.269Z,17.91
2023-03-25T23:24:47.161Z,17.79
2023-03-25T23:27:16.259Z,17.65
2023-03-25T23:29:46.031Z,17.77
2023-03-25T23:32:15.532Z,17.30
2023-03-25T23:34:44.469Z,17.59
2023-03-25T23:37:13.285Z,17.73
2023-03-25T23:39:42.993Z,17.77
2023-03-25T23:42:11.687Z,17.78
2023-03-25T23:44:40.612Z,17.56
2023-03-25T23:47:09.354Z,17.40
2023-03-25T23:49:39.275Z,17.55
2023-03-25T23:52:12.141Z,17.69
2023-03-25T23:54:41.591Z,17.20
2023-03-25T23:57:10.558Z,17.21
2023-03-25T23:59:39.615Z,17.21
